Time;durP1;ratioP1;P1;durP2;ratioP2;P2;SDS_P1;SDS_P2;PMS_P1;PMS_P2;Temp;Humidity;BMP_temperature;BMP_pressure;BME280_temperature;BME280_humidity;BME280_pressure;Samples;Min_cycle;Max_cycle;Signal;HPM_P1;HPM_P2
2023/03/11 00:00:40;;;;;;;18.37;7.90;;;;;;;1.42;100.00;98409.09;5054182;28;20438;-67
2023/03/11 00:03:09;;;;;;;14.77;7.30;;;;;;;1.21;100.00;98419.34;5054745;28;20455;-66
2023/03/11 00:05:37;;;;;;;23.23;8.10;;;;;;;1.07;100.00;98427.28;5053960;28;20486;-66
2023/03/11 00:08:05;;;;;;;19.27;8.33;;;;;;;0.97;100.00;98430.91;5054572;28;20445;-66
2023/03/11 00:10:33;;;;;;;24.70;7.83;;;;;;;0.96;100.00;98433.84;5054155;28;20537;-68
2023/03/11 00:13:00;;;;;;;16.47;7.70;;;;;;;0.92;100.00;98438.97;5054546;28;20442;-66
2023/03/11 00:15:28;;;;;;;21.40;9.13;;;;;;;0.92;100.00;98446.97;5054568;28;20443;-67
2023/03/11 00:17:55;;;;;;;21.23;8.83;;;;;;;0.86;100.00;98445.47;5054427;28;20474;-66
2023/03/11 00:20:25;;;;;;;18.70;8.00;;;;;;;0.81;100.00;98453.53;5054309;28;20434;-67
2023/03/11 00:22:52;;;;;;;20.80;8.80;;;;;;;0.87;100.00;98456.91;5054488;28;20466;-67
2023/03/11 00:25:20;;;;;;;16.83;8.20;;;;;;;0.88;100.00;98463.81;5054089;28;20481;-65
2023/03/11 00:27:47;;;;;;;23.50;8.03;;;;;;;0.82;100.00;98475.66;5053836;28;20485;-67
2023/03/11 00:30:15;;;;;;;17.37;6.77;;;;;;;0.79;100.00;98478.88;5054268;28;20481;-66
2023/03/11 00:32:42;;;;;;;16.87;7.80;;;;;;;0.73;100.00;98476.28;5054095;28;20496;-69
2023/03/11 00:35:13;;;;;;;17.33;7.37;;;;;;;0.70;100.00;98486.72;5053737;28;20435;-67
2023/03/11 00:37:41;;;;;;;20.70;8.40;;;;;;;0.65;100.00;98495.59;5053754;28;20449;-67
2023/03/11 00:40:11;;;;;;;19.10;8.97;;;;;;;0.75;100.00;98498.13;5053951;28;20550;-66
2023/03/11 00:42:38;;;;;;;19.10;7.47;;;;;;;0.73;100.00;98499.50;5111383;22;20492;-65
2023/03/11 00:45:05;;;;;;;12.50;6.83;;;;;;;0.73;100.00;98500.28;5073934;28;20587;-64
2023/03/11 00:47:32;;;;;;;20.47;8.13;;;;;;;0.63;100.00;98508.41;5073826;28;20817;-65
2023/03/11 00:49:59;;;;;;;19.37;8.20;;;;;;;0.66;100.00;98510.47;5074094;28;20528;-65
2023/03/11 00:52:25;;;;;;;14.80;7.17;;;;;;;0.67;100.00;98517.41;5073802;28;20461;-65
2023/03/11 00:54:53;;;;;;;20.50;7.57;;;;;;;0.64;100.00;98519.84;5073824;28;20464;-65
2023/03/11 00:57:20;;;;;;;21.97;8.90;;;;;;;0.56;100.00;98542.59;5073764;28;20469;-64
2023/03/11 00:59:46;;;;;;;20.83;7.70;;;;;;;0.62;100.00;98537.97;5073363;28;20934;-64
2023/03/11 01:02:13;;;;;;;21.13;8.40;;;;;;;0.58;100.00;98539.66;5073257;28;20466;-64
2023/03/11 01:04:40;;;;;;;19.30;8.97;;;;;;;0.58;100.00;98543.13;5073531;28;20485;-64
2023/03/11 01:07:06;;;;;;;15.50;7.07;;;;;;;0.61;100.00;98555.84;5073516;28;20445;-64
2023/03/11 01:09:33;;;;;;;22.50;9.03;;;;;;;0.64;100.00;98565.94;5073481;28;20441;-64
2023/03/11 01:12:01;;;;;;;15.07;6.90;;;;;;;0.64;100.00;98571.25;5073316;28;20469;-64
2023/03/11 01:14:28;;;;;;;18.20;7.23;;;;;;;0.66;100.00;98582.41;5073517;28;20441;-65
2023/03/11 01:16:55;;;;;;;13.70;6.70;;;;;;;0.66;100.00;98590.41;5073365;28;20531;-65
2023/03/11 01:19:22;;;;;;;10.40;5.20;;;;;;;0.64;100.00;98592.56;5073393;28;20441;-65
2023/03/11 01:21:48;;;;;;;15.13;6.07;;;;;;;0.72;100.00;98602.59;5073390;28;20465;-65
2023/03/11 01:24:15;;;;;;;14.10;5.93;;;;;;;0.71;100.00;98614.34;5072909;28;21006;-66
2023/03/11 01:26:42;;;;;;;13.57;5.47;;;;;;;0.76;100.00;98629.47;5073038;28;20441;-66
2023/03/11 01:29:09;;;;;;;12.10;4.20;;;;;;;0.69;100.00;98637.00;5073423;28;20487;-65
2023/03/11 01:31:36;;;;;;;9.17;3.57;;;;;;;0.77;100.00;98641.72;5073145;28;20457;-66
2023/03/11 01:34:03;;;;;;;10.77;3.17;;;;;;;0.74;100.00;98660.91;5073109;28;20444;-66
2023/03/11 01:36:29;;;;;;;11.03;3.40;;;;;;;0.73;100.00;98665.47;5073249;28;20441;-65
2023/03/11 01:38:56;;;;;;;12.63;3.53;;;;;;;0.73;100.00;98670.78;5072805;28;20441;-65
2023/03/11 01:41:23;;;;;;;8.17;2.73;;;;;;;0.72;100.00;98673.75;5072660;28;20473;-65
2023/03/11 01:43:54;;;;;;;8.40;3.40;;;;;;;0.77;100.00;98680.88;5072811;28;20494;-65
2023/03/11 01:46:24;;;;;;;7.70;2.30;;;;;;;0.69;100.00;98684.97;5072763;28;20819;-65
2023/03/11 01:48:52;;;;;;;5.87;1.80;;;;;;;0.70;100.00;98705.97;5072842;28;20935;-64
2023/03/11 01:51:24;;;;;;;5.60;1.40;;;;;;;0.71;100.00;98707.59;5072795;28;20548;-64
2023/03/11 01:53:52;;;;;;;5.97;1.60;;;;;;;0.74;100.00;98723.00;5073082;28;20432;-64
2023/03/11 01:56:19;;;;;;;5.27;1.10;;;;;;;0.73;100.00;98729.41;5072797;28;20441;-65
2023/03/11 01:58:51;;;;;;;6.40;1.63;;;;;;;0.75;100.00;98734.44;5073061;28;20437;-65
2023/03/11 02:01:20;;;;;;;5.67;1.30;;;;;;;0.75;100.00;98739.78;5072750;28;20504;-65
2023/03/11 02:03:48;;;;;;;8.27;1.77;;;;;;;0.80;100.00;98752.25;5072968;28;20523;-65
2023/03/11 02:06:19;;;;;;;5.93;1.93;;;;;;;0.84;100.00;98763.94;5072926;28;20850;-65
2023/03/11 02:08:46;;;;;;;6.10;1.60;;;;;;;0.85;100.00;98769.00;5073017;28;20440;-65
2023/03/11 02:11:16;;;;;;;5.60;1.33;;;;;;;0.84;100.00;98779.91;5072599;28;20488;-66
2023/03/11 02:13:45;;;;;;;4.87;1.10;;;;;;;0.87;100.00;98784.69;5072838;28;20433;-66
2023/03/11 02:16:13;;;;;;;5.63;1.50;;;;;;;0.88;100.00;98794.28;5072781;28;20532;-66
2023/03/11 02:18:40;;;;;;;6.17;1.40;;;;;;;0.93;100.00;98816.38;5072891;28;20441;-66
2023/03/11 02:21:18;;;;;;;6.43;1.57;;;;;;;0.77;100.00;98812.25;5072749;28;20465;-66
2023/03/11 02:23:52;;;;;;;6.30;1.33;;;;;;;0.78;100.00;98829.81;5072813;28;20476;-65
2023/03/11 02:26:24;;;;;;;5.07;1.23;;;;;;;0.74;100.00;98836.78;5072466;28;20846;-66
2023/03/11 02:28:53;;;;;;;8.50;1.40;;;;;;;0.72;100.00;98854.91;5075818;28;20421;-65
2023/03/11 02:31:20;;;;;;;7.03;1.50;;;;;;;0.73;100.00;98862.63;5076066;28;20978;-65
2023/03/11 02:33:51;;;;;;;6.03;1.40;;;;;;;0.72;100.00;98866.38;5076468;28;20441;-66
2023/03/11 02:36:32;;;;;;;5.90;1.33;;;;;;;0.88;100.00;98879.56;5076093;28;20933;-66
2023/03/11 02:38:58;;;;;;;7.10;2.03;;;;;;;0.78;100.00;98879.66;5076078;28;20448;-67
2023/03/11 02:41:25;;;;;;;7.00;1.70;;;;;;;0.81;100.00;98887.09;5076096;28;20508;-66
2023/03/11 02:43:54;;;;;;;6.43;1.90;;;;;;;0.83;100.00;98890.25;5076355;28;20508;-66
2023/03/11 02:46:20;;;;;;;6.00;1.83;;;;;;;0.85;100.00;98907.56;5076195;28;20485;-66
2023/03/11 02:48:48;;;;;;;5.83;1.77;;;;;;;0.85;100.00;98912.91;5075896;28;20547;-67
2023/03/11 02:51:15;;;;;;;6.10;1.67;;;;;;;0.83;100.00;98928.38;5076243;28;20457;-67
2023/03/11 02:53:46;;;;;;;6.73;2.30;;;;;;;0.81;100.00;98935.84;5075876;28;20441;-67
2023/03/11 02:56:12;;;;;;;7.40;2.00;;;;;;;0.89;100.00;98950.47;5076220;28;20508;-68
2023/03/11 02:58:39;;;;;;;6.53;1.87;;;;;;;0.84;100.00;98955.81;5076088;28;20502;-67
2023/03/11 03:01:07;;;;;;;7.00;1.83;;;;;;;0.80;100.00;98962.75;5075908;28;20468;-67
2023/03/11 03:03:33;;;;;;;7.80;2.87;;;;;;;0.74;100.00;98976.13;5075981;28;20816;-67
2023/03/11 03:06:00;;;;;;;9.67;2.77;;;;;;;0.81;100.00;98983.03;5075757;28;20481;-67
2023/03/11 03:08:26;;;;;;;6.33;2.43;;;;;;;0.80;100.00;98984.91;5075644;28;20531;-67
2023/03/11 03:10:53;;;;;;;6.20;2.10;;;;;;;0.79;100.00;98998.47;5075793;28;20452;-67
2023/03/11 03:13:20;;;;;;;6.20;1.87;;;;;;;0.78;100.00;99007.56;5075748;28;20524;-67
2023/03/11 03:15:46;;;;;;;7.17;2.80;;;;;;;0.81;100.00;99007.00;5075752;28;20441;-67
2023/03/11 03:18:14;;;;;;;6.37;2.03;;;;;;;0.87;100.00;99029.88;5075636;28;20538;-67
2023/03/11 03:20:41;;;;;;;7.17;2.00;;;;;;;0.78;100.00;99036.88;5075252;28;20990;-67
2023/03/11 03:23:07;;;;;;;7.10;2.57;;;;;;;0.82;100.00;99041.38;5075594;28;20437;-67
2023/03/11 03:25:34;;;;;;;8.07;3.07;;;;;;;0.83;100.00;99047.50;5075077;28;21024;-66
2023/03/11 03:28:01;;;;;;;9.10;3.53;;;;;;;0.79;100.00;99059.78;5075574;28;20544;-66
2023/03/11 03:30:28;;;;;;;7.57;3.27;;;;;;;0.89;100.00;99070.41;5075174;28;20441;-67
2023/03/11 03:32:55;;;;;;;9.30;3.30;;;;;;;0.88;100.00;99074.13;5074928;28;20469;-67
2023/03/11 03:35:23;;;;;;;11.63;3.87;;;;;;;0.89;100.00;99089.84;5075417;28;20429;-67
2023/03/11 03:37:49;;;;;;;8.63;3.47;;;;;;;0.85;100.00;99093.34;5075339;28;20473;-67
2023/03/11 03:40:16;;;;;;;7.80;2.73;;;;;;;0.82;100.00;99100.00;5074011;28;20524;-67
2023/03/11 03:42:43;;;;;;;8.13;3.23;;;;;;;0.87;100.00;99118.63;5074699;28;20473;-67
2023/03/11 03:45:10;;;;;;;6.73;2.33;;;;;;;0.90;100.00;99125.28;5075113;28;20562;-67
2023/03/11 03:47:37;;;;;;;9.70;3.50;;;;;;;0.88;100.00;99122.88;5075165;28;20437;-66
2023/03/11 03:50:05;;;;;;;7.80;3.10;;;;;;;0.86;100.00;99132.25;5075188;28;20449;-66
2023/03/11 03:52:34;;;;;;;9.00;3.30;;;;;;;0.82;100.00;99144.50;5074897;28;20457;-66
2023/03/11 03:55:01;;;;;;;10.20;3.23;;;;;;;0.77;100.00;99141.88;5075006;28;20468;-66
2023/03/11 03:57:28;;;;;;;9.97;3.37;;;;;;;0.88;100.00;99157.53;5074987;28;20881;-66
2023/03/11 03:59:55;;;;;;;9.70;3.83;;;;;;;0.89;100.00;99163.69;5074836;28;20445;-65
2023/03/11 04:02:21;;;;;;;9.60;3.50;;;;;;;0.91;100.00;99180.97;5074771;28;20461;-65
2023/03/11 04:04:48;;;;;;;11.03;3.70;;;;;;;0.93;100.00;99183.38;5074670;28;20537;-65
2023/03/11 04:07:15;;;;;;;9.30;3.70;;;;;;;0.91;100.00;99188.97;5074737;28;20451;-64
2023/03/11 04:09:43;;;;;;;9.10;3.90;;;;;;;0.92;100.00;99192.44;5074731;28;20477;-65
2023/03/11 04:12:13;;;;;;;9.53;3.37;;;;;;;0.90;100.00;99197.25;5074292;28;21018;-65
2023/03/11 04:14:40;;;;;;;10.90;4.03;;;;;;;0.88;100.00;99213.50;5074543;28;20895;-64
2023/03/11 04:17:06;;;;;;;7.63;2.67;;;;;;;0.86;100.00;99205.00;5074477;28;20437;-63
2023/03/11 04:19:33;;;;;;;7.77;2.80;;;;;;;0.87;100.00;99213.78;5074444;28;20446;-64
2023/03/11 04:22:00;;;;;;;9.03;3.03;;;;;;;0.85;100.00;99213.28;5074407;28;20461;-64
2023/03/11 04:24:26;;;;;;;10.03;2.80;;;;;;;0.88;100.00;99226.03;5074162;28;20467;-64
2023/03/11 04:26:54;;;;;;;9.37;3.50;;;;;;;0.92;100.00;99243.09;5074229;28;20555;-64
2023/03/11 04:29:21;;;;;;;7.03;2.60;;;;;;;0.89;100.00;99236.44;5074274;28;20540;-64
2023/03/11 04:31:47;;;;;;;8.13;2.93;;;;;;;0.91;100.00;99244.97;5073748;28;21028;-64
2023/03/11 04:34:14;;;;;;;7.60;2.37;;;;;;;0.89;100.00;99254.31;5073812;28;20472;-64
2023/03/11 04:36:41;;;;;;;8.77;2.80;;;;;;;0.89;100.00;99263.09;5074075;28;20814;-64
2023/03/11 04:39:08;;;;;;;6.30;2.10;;;;;;;0.89;100.00;99270.28;5074072;28;20437;-63
2023/03/11 04:41:34;;;;;;;6.60;1.90;;;;;;;0.93;100.00;99285.47;5073525;28;20552;-64
2023/03/11 04:44:02;;;;;;;6.87;2.13;;;;;;;0.96;100.00;99292.91;5073554;28;20973;-63
2023/03/11 04:46:29;;;;;;;8.80;2.70;;;;;;;0.91;100.00;99295.59;5073911;28;20481;-63
2023/03/11 04:48:55;;;;;;;6.93;2.00;;;;;;;0.85;100.00;99302.00;5073531;28;20480;-64
2023/03/11 04:51:22;;;;;;;7.90;2.23;;;;;;;0.87;100.00;99304.41;5073344;28;20469;-63
2023/03/11 04:53:49;;;;;;;6.87;2.00;;;;;;;0.83;100.00;99314.00;5073888;28;20448;-63
2023/03/11 04:56:15;;;;;;;6.43;2.37;;;;;;;0.78;100.00;99316.66;5073741;28;20525;-64
2023/03/11 04:58:42;;;;;;;7.47;2.40;;;;;;;0.85;100.00;99323.34;5073342;28;20934;-63
2023/03/11 05:01:10;;;;;;;6.10;2.00;;;;;;;0.91;100.00;99327.59;5073620;28;20532;-63
2023/03/11 05:03:36;;;;;;;7.07;2.17;;;;;;;0.94;100.00;99347.59;5073565;28;20437;-63
2023/03/11 05:06:03;;;;;;;7.27;2.17;;;;;;;0.93;100.00;99351.28;5073463;28;20569;-63
2023/03/11 05:08:29;;;;;;;6.77;2.53;;;;;;;0.95;100.00;99357.19;5073478;28;20442;-63
2023/03/11 05:10:56;;;;;;;6.77;2.10;;;;;;;0.98;100.00;99356.66;5073341;28;20449;-64
2023/03/11 05:13:23;;;;;;;6.63;1.90;;;;;;;0.97;100.00;99369.19;5073380;28;20879;-63
2023/03/11 05:15:49;;;;;;;8.17;2.80;;;;;;;0.95;100.00;99376.63;5073383;28;20441;-63
2023/03/11 05:18:17;;;;;;;8.00;2.27;;;;;;;0.95;100.00;99386.50;5073405;28;20528;-64
2023/03/11 05:20:44;;;;;;;8.47;2.83;;;;;;;0.95;100.00;99386.50;5073253;28;20437;-63
2023/03/11 05:23:10;;;;;;;7.17;2.13;;;;;;;1.01;100.00;99385.41;5073346;28;20819;-64
2023/03/11 05:25:37;;;;;;;6.00;2.00;;;;;;;1.07;100.00;99399.56;5073222;28;20517;-64
2023/03/11 05:28:04;;;;;;;7.23;2.37;;;;;;;1.04;100.00;99408.88;5073233;28;20477;-64
2023/03/11 05:30:31;;;;;;;7.97;2.70;;;;;;;1.08;100.00;99415.28;5073132;28;20441;-64
2023/03/11 05:32:57;;;;;;;6.57;2.80;;;;;;;1.09;100.00;99419.53;5073053;28;20461;-64
2023/03/11 05:35:25;;;;;;;10.40;2.50;;;;;;;1.00;100.00;99419.28;5073123;28;20465;-64
2023/03/11 05:37:52;;;;;;;6.70;2.80;;;;;;;1.00;100.00;99435.28;5073239;28;20436;-65
2023/03/11 05:40:19;;;;;;;6.50;2.33;;;;;;;1.00;100.00;99435.28;5073255;28;20441;-65
2023/03/11 05:42:46;;;;;;;7.10;2.10;;;;;;;1.03;100.00;99436.63;5072703;28;20487;-64
2023/03/11 05:45:13;;;;;;;7.97;2.90;;;;;;;1.02;100.00;99448.34;5072754;28;21016;-64
2023/03/11 05:47:41;;;;;;;10.13;2.70;;;;;;;1.05;100.00;99455.81;5073131;28;20441;-64
2023/03/11 05:50:08;;;;;;;8.60;2.80;;;;;;;1.01;100.00;99450.19;5073138;28;20449;-64
2023/03/11 05:52:36;;;;;;;7.97;2.77;;;;;;;1.06;100.00;99467.28;5073017;28;20457;-65
2023/03/11 05:55:03;;;;;;;8.10;2.97;;;;;;;1.02;100.00;99464.34;5073095;28;20441;-65
2023/03/11 05:57:30;;;;;;;9.57;3.80;;;;;;;1.06;100.00;99470.72;5072522;28;20547;-65
2023/03/11 05:59:56;;;;;;;9.30;3.57;;;;;;;1.03;100.00;99473.94;5072602;28;20942;-65
2023/03/11 06:02:23;;;;;;;8.83;3.10;;;;;;;1.03;100.00;99473.16;5073788;28;20488;-65
2023/03/11 06:04:50;;;;;;;9.80;2.87;;;;;;;1.02;100.00;99480.34;5077059;28;20437;-65
2023/03/11 06:07:16;;;;;;;8.30;2.90;;;;;;;1.01;100.00;99486.72;5076638;28;20485;-65
2023/03/11 06:09:44;;;;;;;7.10;2.33;;;;;;;1.09;100.00;99491.53;5076866;28;20437;-64
2023/03/11 06:12:11;;;;;;;8.23;2.80;;;;;;;1.09;100.00;99499.53;5076934;28;20461;-64
2023/03/11 06:14:37;;;;;;;8.00;3.10;;;;;;;1.09;100.00;99504.06;5076638;28;20960;-63
2023/03/11 06:17:04;;;;;;;8.73;3.37;;;;;;;1.15;100.00;99501.16;5076467;28;20476;-63
2023/03/11 06:19:31;;;;;;;8.50;2.73;;;;;;;1.04;100.00;99512.88;5076812;28;20449;-64
2023/03/11 06:21:57;;;;;;;12.00;3.27;;;;;;;1.01;100.00;99513.38;5076621;28;20472;-63
2023/03/11 06:24:24;;;;;;;9.03;3.60;;;;;;;1.00;100.00;99522.47;5076682;28;20445;-63
2023/03/11 06:26:53;;;;;;;10.00;3.47;;;;;;;1.03;100.00;99529.94;5076277;28;21036;-63
2023/03/11 06:29:20;;;;;;;8.90;3.60;;;;;;;1.04;100.00;99536.06;5076495;28;20448;-63
2023/03/11 06:31:47;;;;;;;10.10;3.87;;;;;;;1.09;100.00;99547.53;5076429;28;20457;-62
2023/03/11 06:34:13;;;;;;;11.30;4.23;;;;;;;1.16;100.00;99550.75;5076665;28;20437;-63
2023/03/11 06:36:40;;;;;;;10.73;3.87;;;;;;;1.18;100.00;99567.28;5076710;28;20433;-63
2023/03/11 06:39:07;;;;;;;9.93;3.90;;;;;;;1.19;100.00;99568.09;5076187;28;20455;-63
2023/03/11 06:44:03;;;;;;;9.07;3.80;;;;;;;1.07;100.00;99580.88;5034350;28;20475;-65
2023/03/11 06:46:30;;;;;;;11.40;5.10;;;;;;;1.14;100.00;99598.22;5036277;28;20521;-64
2023/03/11 06:48:57;;;;;;;13.03;5.10;;;;;;;1.17;100.00;99602.22;5035929;28;20447;-65
2023/03/11 06:51:23;;;;;;;12.47;5.43;;;;;;;1.17;100.00;99605.69;5036107;28;20523;-65
2023/03/11 06:53:52;;;;;;;9.63;3.90;;;;;;;1.15;100.00;99612.34;5036105;28;20513;-68
2023/03/11 06:56:20;;;;;;;10.33;4.20;;;;;;;1.24;100.00;99619.59;5036172;28;20478;-68
2023/03/11 06:58:46;;;;;;;10.43;4.00;;;;;;;1.16;100.00;99622.75;5036115;28;20443;-67
2023/03/11 07:01:16;;;;;;;11.40;4.20;;;;;;;1.13;100.00;99623.28;5036080;28;20446;-68
2023/03/11 07:03:45;;;;;;;10.57;4.07;;;;;;;1.19;100.00;99630.22;5035917;28;20562;-68
2023/03/11 07:06:13;;;;;;;11.47;4.27;;;;;;;0.96;100.00;99641.34;5035527;28;21110;-67
2023/03/11 07:08:40;;;;;;;11.03;3.40;;;;;;;0.97;100.00;99643.78;5035900;28;20467;-67
2023/03/11 07:11:08;;;;;;;10.87;4.50;;;;;;;0.97;100.00;99653.59;5035830;28;20825;-67
2023/03/11 07:13:36;;;;;;;9.27;3.90;;;;;;;1.03;100.00;99652.59;5035532;28;20471;-68
2023/03/11 07:16:05;;;;;;;19.10;4.73;;;;;;;1.18;100.00;99668.63;5035807;28;20450;-67
2023/03/11 07:18:34;;;;;;;10.90;4.33;;;;;;;1.16;100.00;99676.09;5035709;28;20537;-67
2023/03/11 07:21:01;;;;;;;11.40;5.27;;;;;;;1.11;100.00;99668.09;5035666;28;20538;-68
2023/03/11 07:23:28;;;;;;;10.10;3.70;;;;;;;1.00;100.00;99677.88;5035506;28;20473;-68
2023/03/11 07:25:54;;;;;;;13.30;5.07;;;;;;;1.00;100.00;99688.56;5035483;28;20443;-68
2023/03/11 07:28:21;;;;;;;9.13;4.10;;;;;;;1.00;100.00;99687.75;5035817;28;20439;-69
2023/03/11 07:30:48;;;;;;;11.43;5.30;;;;;;;1.03;100.00;99702.44;5035243;28;20479;-70
2023/03/11 07:33:15;;;;;;;9.23;4.13;;;;;;;1.04;100.00;99706.72;5035170;28;20509;-68
2023/03/11 07:35:43;;;;;;;14.13;3.73;;;;;;;1.20;100.00;99719.84;5035357;28;20482;-69
2023/03/11 07:38:10;;;;;;;14.70;4.50;;;;;;;1.25;100.00;99724.41;5035076;28;20940;-68
2023/03/11 07:40:37;;;;;;;10.30;4.53;;;;;;;1.33;100.00;99728.41;5035392;28;20453;-68
2023/03/11 07:43:04;;;;;;;11.23;3.80;;;;;;;1.37;100.00;99737.50;5035045;28;20489;-69
2023/03/11 07:45:30;;;;;;;12.97;5.13;;;;;;;1.37;100.00;99746.31;5035300;28;20810;-69
2023/03/11 07:47:57;;;;;;;13.77;4.30;;;;;;;1.36;100.00;99749.25;5034841;28;20570;-71
2023/03/11 07:50:24;;;;;;;11.47;4.50;;;;;;;1.44;100.00;99756.75;5035190;28;20443;-66
2023/03/11 07:52:52;;;;;;;11.40;4.60;;;;;;;1.43;100.00;99763.16;5034460;28;20550;-66
2023/03/11 07:55:18;;;;;;;13.00;4.90;;;;;;;1.39;100.00;99772.75;5035082;28;20474;-65
2023/03/11 07:57:47;;;;;;;12.80;5.33;;;;;;;1.37;100.00;99778.31;5034998;28;20463;-65
2023/03/11 08:00:15;;;;;;;13.13;5.30;;;;;;;1.34;100.00;99770.06;5034538;28;20990;-65
2023/03/11 08:02:42;;;;;;;16.90;5.27;;;;;;;1.39;100.00;99780.75;5034369;28;20510;-66
2023/03/11 08:05:09;;;;;;;10.63;4.40;;;;;;;1.39;100.00;99781.56;5034729;28;20990;-65
2023/03/11 08:07:36;;;;;;;13.20;5.60;;;;;;;1.37;100.00;99788.19;5034721;28;20487;-65
2023/03/11 08:10:04;;;;;;;8.20;3.67;;;;;;;1.40;100.00;99793.03;5034718;28;20447;-65
2023/03/11 08:12:31;;;;;;;12.80;4.40;;;;;;;1.46;100.00;99797.31;5034833;28;20806;-71
2023/03/11 08:14:58;;;;;;;11.40;5.50;;;;;;;1.45;100.00;99806.38;5034877;28;20489;-72
2023/03/11 08:17:24;;;;;;;11.30;5.43;;;;;;;1.43;100.00;99806.66;5034670;28;20454;-66
2023/03/11 08:19:51;;;;;;;13.63;5.20;;;;;;;1.41;100.00;99807.97;5034550;28;20453;-65
2023/03/11 08:22:17;;;;;;;9.83;4.30;;;;;;;1.39;100.00;99823.44;5034190;28;20837;-66
2023/03/11 08:24:44;;;;;;;17.40;4.83;;;;;;;1.45;100.00;99825.84;5033968;28;20483;-66
2023/03/11 08:27:12;;;;;;;12.30;4.50;;;;;;;1.43;100.00;99828.00;5034290;28;20538;-65
2023/03/11 08:29:38;;;;;;;11.83;5.03;;;;;;;1.45;100.00;99844.53;5034391;28;20474;-65
2023/03/11 08:32:06;;;;;;;12.40;5.10;;;;;;;1.57;100.00;99848.88;5034227;28;20544;-65
2023/03/11 08:34:33;;;;;;;10.60;4.70;;;;;;;1.64;100.00;99852.94;5034239;28;20439;-65
2023/03/11 08:37:00;;;;;;;12.97;5.53;;;;;;;1.65;100.00;99843.84;5034222;28;20522;-65
2023/03/11 08:39:27;;;;;;;12.03;4.80;;;;;;;1.74;100.00;99863.63;5034141;28;20451;-65
2023/03/11 08:41:53;;;;;;;12.73;5.60;;;;;;;1.84;100.00;99868.22;5033807;28;20446;-65
2023/03/11 08:44:21;;;;;;;11.20;5.17;;;;;;;1.93;100.00;99871.97;5034177;28;20426;-65
2023/03/11 08:46:48;;;;;;;10.67;4.40;;;;;;;1.94;100.00;99872.78;5033921;28;20561;-66
2023/03/11 08:49:14;;;;;;;12.37;5.70;;;;;;;1.84;100.00;99884.22;5033980;28;20443;-66
2023/03/11 08:51:41;;;;;;;10.20;4.43;;;;;;;1.83;100.00;99892.50;5033898;28;21018;-66
2023/03/11 08:54:08;;;;;;;15.13;4.90;;;;;;;1.89;100.00;99886.91;5033977;28;20533;-66
2023/03/11 08:56:34;;;;;;;13.87;5.07;;;;;;;1.77;100.00;99889.81;5033568;28;20446;-65
2023/03/11 08:59:02;;;;;;;12.90;5.40;;;;;;;1.74;100.00;99900.22;5033740;28;20443;-66
2023/03/11 09:01:30;;;;;;;9.70;4.37;;;;;;;1.94;100.00;99904.81;5033454;28;20543;-66
2023/03/11 09:03:57;;;;;;;13.13;4.97;;;;;;;2.00;100.00;99912.63;5033644;28;20463;-65
2023/03/11 09:06:24;;;;;;;13.50;4.80;;;;;;;2.15;100.00;99911.06;5034317;28;20447;-63
2023/03/11 09:08:51;;;;;;;10.80;5.17;;;;;;;2.27;100.00;99915.13;5033261;28;20840;-65
2023/03/11 09:11:20;;;;;;;11.40;4.83;;;;;;;2.22;100.00;99925.78;5033195;28;20963;-66
2023/03/11 09:13:47;;;;;;;11.93;5.23;;;;;;;2.28;100.00;99929.28;5033721;28;20470;-66
2023/03/11 09:16:16;;;;;;;14.93;5.73;;;;;;;2.23;100.00;99934.59;5033528;28;20443;-65
2023/03/11 09:18:44;;;;;;;12.50;4.43;;;;;;;2.20;100.00;99938.59;5033574;28;20441;-65
2023/03/11 09:21:12;;;;;;;10.90;5.17;;;;;;;2.21;100.00;99948.22;5033430;28;20451;-65
2023/03/11 09:23:39;;;;;;;23.63;5.93;;;;;;;2.20;100.00;99946.59;5033149;28;20984;-66
2023/03/11 09:26:05;;;;;;;11.50;4.93;;;;;;;2.19;100.00;99946.88;5033399;28;20443;-66
2023/03/11 09:28:32;;;;;;;12.90;5.57;;;;;;;2.15;100.00;99949.25;5032976;28;20578;-66
2023/03/11 09:30:59;;;;;;;10.80;4.73;;;;;;;2.15;100.00;99954.59;5033351;28;20434;-65
2023/03/11 09:33:25;;;;;;;11.10;4.63;;;;;;;2.20;100.00;99959.16;5032987;28;20463;-70
2023/03/11 09:35:53;;;;;;;15.33;5.87;;;;;;;2.07;100.00;99965.78;5033557;28;20447;-70
2023/03/11 09:38:20;;;;;;;9.93;4.53;;;;;;;1.82;100.00;99966.47;5032489;28;20526;-67
2023/03/11 09:40:56;;;;;;;14.70;6.00;;;;;;;1.79;100.00;99974.19;5033328;28;20475;-68
2023/03/11 09:43:35;;;;;;;15.60;6.20;;;;;;;1.65;100.00;99969.28;5032979;28;20474;-68
2023/03/11 09:46:23;;;;;;;12.30;5.00;;;;;;;1.58;100.00;99981.25;5033377;28;20908;-67
2023/03/11 09:49:00;;;;;;;11.60;5.47;;;;;;;1.45;100.00;99983.28;5032954;28;20960;-68
2023/03/11 09:51:36;;;;;;;16.00;5.20;;;;;;;1.44;100.00;99986.22;5033441;28;20438;-68
2023/03/11 09:54:04;;;;;;;14.27;5.77;;;;;;;1.39;100.00;99991.53;5033229;28;20426;-67
2023/03/11 09:56:34;;;;;;;10.70;4.70;;;;;;;1.35;100.00;99995.75;5033046;28;20438;-68
2023/03/11 09:59:05;;;;;;;12.90;5.80;;;;;;;1.31;100.00;99998.13;5032964;28;20909;-67
2023/03/11 10:01:34;;;;;;;12.87;5.87;;;;;;;1.36;100.00;100003.50;5033313;28;20892;-67
2023/03/11 10:04:08;;;;;;;16.43;7.23;;;;;;;1.34;100.00;100004.81;5033113;28;20451;-65
2023/03/11 10:06:37;;;;;;;11.67;5.10;;;;;;;1.33;100.00;100013.84;5033416;28;20800;-67
2023/03/11 10:09:14;;;;;;;15.17;6.33;;;;;;;1.31;100.00;100014.13;5032867;28;20467;-65
2023/03/11 10:11:51;;;;;;;17.43;5.50;;;;;;;1.35;100.00;100019.75;5033005;28;20505;-68
2023/03/11 10:14:41;;;;;;;16.90;7.13;;;;;;;1.38;100.00;100004.06;5033146;28;20585;-66
2023/03/11 10:17:20;;;;;;;14.53;5.70;;;;;;;1.50;100.00;100017.22;5032834;28;20801;-66
2023/03/11 10:19:51;;;;;;;12.03;6.13;;;;;;;1.64;100.00;100018.41;5033412;28;20441;-66
2023/03/11 10:22:27;;;;;;;15.00;6.43;;;;;;;1.72;100.00;100023.25;5033100;28;20469;-66
2023/03/11 10:25:03;;;;;;;14.50;6.43;;;;;;;1.78;100.00;100034.78;5033304;28;20431;-67
2023/03/11 10:27:39;;;;;;;13.63;5.90;;;;;;;1.61;100.00;100039.47;5032716;28;21058;-66
2023/03/11 10:30:13;;;;;;;17.73;8.37;;;;;;;1.76;100.00;100042.22;5033026;28;20451;-66
2023/03/11 10:32:46;;;;;;;14.97;6.27;;;;;;;1.87;100.00;100041.25;5033063;28;20565;-66
2023/03/11 10:35:18;;;;;;;18.37;8.70;;;;;;;1.87;100.00;100043.13;5033001;28;20493;-66
2023/03/11 10:37:53;;;;;;;19.40;7.47;;;;;;;1.90;100.00;100050.59;5032688;28;20439;-66
2023/03/11 10:40:26;;;;;;;18.70;7.30;;;;;;;2.00;100.00;100053.34;5032660;28;20770;-66
2023/03/11 10:42:55;;;;;;;18.23;7.67;;;;;;;2.26;100.00;100065.00;5032351;28;20483;-65
2023/03/11 10:45:23;;;;;;;16.63;7.70;;;;;;;2.28;100.00;100068.22;5032740;28;20786;-66
2023/03/11 10:47:50;;;;;;;18.33;8.13;;;;;;;2.31;100.00;100072.25;5032383;28;20495;-66
2023/03/11 10:50:18;;;;;;;12.30;6.50;;;;;;;2.32;100.00;100065.84;5035811;28;20449;-66
2023/03/11 10:53:05;;;;;;;18.03;8.23;;;;;;;2.34;100.00;100072.50;5035721;28;20459;-67
2023/03/11 10:55:32;;;;;;;18.20;8.23;;;;;;;2.34;100.00;100074.38;5036116;28;20433;-66
2023/03/11 10:58:07;;;;;;;17.00;8.00;;;;;;;2.30;100.00;100076.75;5036049;28;20439;-66
2023/03/11 11:00:34;;;;;;;14.30;6.37;;;;;;;2.19;100.00;100075.91;5035745;28;20813;-67
2023/03/11 11:03:03;;;;;;;17.20;7.50;;;;;;;2.30;100.00;100084.78;5035906;28;20469;-67
2023/03/11 11:05:32;;;;;;;16.10;7.33;;;;;;;2.45;100.00;100098.25;5035614;28;20447;-66
2023/03/11 11:08:09;;;;;;;20.07;7.57;;;;;;;2.59;100.00;100087.88;5035796;28;20500;-66
2023/03/11 11:10:37;;;;;;;17.83;8.23;;;;;;;2.63;100.00;100091.66;5035915;28;20435;-66
2023/03/11 11:13:17;;;;;;;18.87;8.13;;;;;;;2.77;100.00;100089.28;5035375;28;20463;-73
2023/03/11 11:15:55;;;;;;;21.30;9.10;;;;;;;2.77;100.00;100098.13;5035768;28;20439;-71
2023/03/11 11:18:25;;;;;;;15.50;7.90;;;;;;;2.80;100.00;100104.03;5035727;28;20459;-66
2023/03/11 11:21:02;;;;;;;18.97;7.80;;;;;;;2.68;100.00;100097.00;5035911;28;20443;-66
2023/03/11 11:23:41;;;;;;;15.37;7.53;;;;;;;2.77;100.00;100100.78;5035400;28;20545;-66
2023/03/11 11:26:15;;;;;;;16.83;7.60;;;;;;;2.75;100.00;100104.81;5035823;28;20466;-67
2023/03/11 11:28:43;;;;;;;16.53;8.07;;;;;;;2.67;100.00;100103.44;5035412;28;20836;-66
2023/03/11 11:31:21;;;;;;;17.90;7.40;;;;;;;2.72;100.00;100106.13;5035595;28;20450;-66
2023/03/11 11:33:50;;;;;;;18.70;8.00;;;;;;;3.31;100.00;100107.66;5035302;28;20537;-66